Papere Vagabonde

Aviosuperficie Caposile LIKI

Pista 04


Pista 22

Le immagini vengono aggiornate ogni minuto
Cliccare sull'immagine per l'ingrandimento.

METAR LIPZ

LIPZ 152250Z 31005KT 280V340 9000 TSRA BKN040CB 20/18 Q1009 NOSIG

TAF LIPZ 151700Z 1518/1624 14010KT 9999 SCT040
  BECMG 1519/1521 04008KT
  TEMPO 1519/1524 4000 TSRA
  TEMPO 1603/1612 4000 TSRA
  BECMG 1610/1612 12010KT


      

Alba: 06:11
Tramonto: 20:16

LOW LEVEL SIGWX CHART

ALL WEATHER DATA